Aérodrome :
LOGIN :

S'inscrire | Disclaimer

   EN    FR    IT 

 










Légende :    VFR   VFR Marginal   IFR   IFR Intensif   IFR Très Intensif
Visi : 
Plafond : 
>= 8 km
>= 3000ft
5 à 8 km
1000 à 3000 ft
1500m à 5 km
500 à 1000 ft
800 à 1500m
200 à 500 ft
< 800m
< 200 ft
Symboles :   Orages  Brouillard  Fortes neiges  Fortes précipitations  Vent > 20 kt
SIGMETs :   Divers  Orages  Givrage  Turbulence  Onde Orograph.  Cendres Volcan.







- Altitude de l'aérodrome : 313 ft
- Code IATA : LEH
- Voir les cartes d'approche


LFOH - Le Havre Octeville

DERNIER METAR :
  • 221830Z AUTO 19010KT 160V220 6000 // BKN006 OVC011 15/14 Q1012

METARs EXPIRÉS :
  • 221800Z AUTO 17012KT 5000 // BKN010 OVC018 14/13 Q1012
  • 221730Z AUTO 14014KT 110V180 5000 // BKN011 BKN019 OVC025 13/12 Q1013
  • 221700Z AUTO 14015KT 100V160 4600 -DZ BR SCT017 OVC028 13/11 Q1013 TEMPO 24020G30KT 1500 RADZ OVC002
  • 221600Z AUTO 13014KT 7000 SCT008 SCT014 OVC031 12/11 Q1015 TEMPO 4000 RA

TAF TAF LFOH
Valide du 22 à 12h jusqu'au 23 à 12h UTC


221100Z 2212/2312 20010KT 9999 BKN040
TEMPO 2212/2310 4000 RA
BECMG 2213/2215 12013KT
TEMPO 2218/2224 24020G30KT
PROB40
TEMPO 2218/2310 1500 RADZ OVC002
BECMG 2220/2224 24018G28KT
TEMPO 2310/2312 24025G38KT 2000 SHRA BKN004 BKN015TCU
BECMG 2310/2312 34018G30KT
ATIS : +33 2 35 54 64 93
Pas de NOTAMs connus pour ce terrain.
1 SIGMET publié pour la FIR Paris (LFFF) :
 
Turbulence forte
LFFF SIGMET 2 VALID 221600/222000 LFPW
LFFF PARIS FIR/UIR SEV TURB FCST WI N4815 W00015 - N4915 W00015 - N4915 E00000 - N4815 E00000 - N4815 W00015 SFC/FL060 MOV E 15KT WKN=



MET'MAP, la Météo Aéronautique d'un coup d'oeil ! - Copyright ORBIFLY Décembre 2007 - Disclaimer

ORBIFLY MET'MAP TEAM :

Programmation & Développement : Alexandra Zaïnal
Conception & Développement : Baudouin d'Aumeries
Co-Programmation & Développement : Marc-Olivier Méhu
Soutien technique & logistique : Manuel Goepfert

Contact : metmap@orbifly.com




SOURCES & CREDITS :

   NOAA